Time;durP1;ratioP1;P1;durP2;ratioP2;P2;SDS_P1;SDS_P2;PMS_P1;PMS_P2;Temp;Humidity;BMP_temperature;BMP_pressure;BME280_temperature;BME280_humidity;BME280_pressure;Samples;Min_cycle;Max_cycle;Signal;HPM_P1;HPM_P2
2021/10/20 07:32:42;;;;;;;24.97;18.93;;;15.70;97.60;;;;;;5018162;27;1872706;-75
2021/10/20 07:35:15;;;;;;;21.97;17.80;;;15.70;98.10;;;;;;5085855;28;20056;-74
2021/10/20 07:37:42;;;;;;;21.53;17.33;;;15.70;98.40;;;;;;5068562;28;20542;-76
2021/10/20 07:40:13;;;;;;;22.03;17.63;;;15.80;98.60;;;;;;5061171;28;20083;-79
2021/10/20 07:42:40;;;;;;;21.13;16.90;;;15.80;98.80;;;;;;5027788;28;20563;-79
2021/10/20 07:45:08;;;;;;;17.70;15.70;;;15.90;98.80;;;;;;5028327;28;20049;-76
2021/10/20 07:47:34;;;;;;;17.27;14.73;;;15.90;98.80;;;;;;5045679;28;20064;-76
2021/10/20 07:50:00;;;;;;;16.23;14.53;;;16.00;98.50;;;;;;5027537;28;20084;-76
2021/10/20 07:52:28;;;;;;;16.27;14.47;;;16.00;98.20;;;;;;5045501;28;20083;-74
2021/10/20 07:54:54;;;;;;;17.47;14.60;;;16.10;98.10;;;;;;5033680;28;20049;-75
2021/10/20 07:57:20;;;;;;;16.67;14.37;;;16.10;98.10;;;;;;5054907;28;20171;-77
2021/10/20 07:59:46;;;;;;;15.87;13.87;;;16.20;97.90;;;;;;5038206;28;20132;-76
2021/10/20 08:02:13;;;;;;;17.03;15.23;;;16.20;97.90;;;;;;5054143;28;20045;-78
2021/10/20 08:04:38;;;;;;;15.33;13.80;;;16.20;98.00;;;;;;5038043;28;20053;-79
2021/10/20 08:07:04;;;;;;;19.93;15.37;;;16.30;98.10;;;;;;5055351;28;20064;-80
2021/10/20 08:14:40;;;;;;;15.90;13.30;;;16.30;97.10;;;;;;5121953;27;1181315;-73
2021/10/20 08:17:07;;;;;;;17.77;13.65;;;16.20;97.80;;;;;;5146788;27;20371;-78
2021/10/20 08:19:33;;;;;;;17.40;14.77;;;16.30;97.90;;;;;;5148147;27;20096;-81
2021/10/20 08:21:59;;;;;;;16.27;14.57;;;16.40;98.20;;;;;;5147526;27;20035;-78
2021/10/20 08:24:24;;;;;;;13.90;12.33;;;16.40;98.30;;;;;;5146673;27;20063;-80
2021/10/20 08:26:50;;;;;;;17.53;14.07;;;16.40;98.20;;;;;;5129683;27;20087;-78
2021/10/20 08:29:16;;;;;;;15.13;13.17;;;16.50;98.20;;;;;;5129406;27;20088;-78
2021/10/20 08:31:42;;;;;;;17.27;13.63;;;16.50;98.10;;;;;;5147390;27;20050;-77
2021/10/20 08:34:08;;;;;;;14.53;12.47;;;16.50;98.00;;;;;;5147438;27;20043;-76
2021/10/20 08:36:34;;;;;;;14.77;12.73;;;16.50;97.80;;;;;;5129435;27;20062;-78
2021/10/20 08:38:59;;;;;;;13.73;11.53;;;16.50;97.80;;;;;;5128554;27;20230;-76
2021/10/20 08:43:30;;;;;;;14.53;11.50;;;16.50;96.80;;;;;;5100020;27;20891;-72
2021/10/20 08:45:56;;;;;;;16.50;12.43;;;16.60;97.50;;;;;;5068366;28;20044;-75
2021/10/20 08:48:22;;;;;;;11.80;10.40;;;16.60;97.40;;;;;;5065990;28;20043;-75
2021/10/20 08:50:54;;;;;;;13.93;11.57;;;16.60;97.30;;;;;;5064618;28;20044;-75
2021/10/20 08:53:21;;;;;;;13.70;10.93;;;16.60;97.10;;;;;;5064034;28;20056;-76
2021/10/20 08:55:47;;;;;;;13.30;10.73;;;16.70;97.10;;;;;;5081439;28;20045;-72
2021/10/20 08:58:14;;;;;;;12.63;10.37;;;16.70;97.00;;;;;;5065645;28;20044;-74
2021/10/20 09:00:40;;;;;;;14.67;10.43;;;16.80;96.80;;;;;;5065385;28;20497;-72
2021/10/20 09:03:13;;;;;;;11.57;10.20;;;16.90;96.70;;;;;;5066028;28;20047;-72
2021/10/20 09:05:39;;;;;;;13.13;9.53;;;16.90;96.50;;;;;;5077373;28;20063;-74
2021/10/20 09:08:06;;;;;;;11.37;10.20;;;16.90;96.30;;;;;;5084976;28;20060;-69
2021/10/20 09:10:32;;;;;;;10.63;9.50;;;17.00;96.20;;;;;;5085438;28;20048;-71
2021/10/20 09:13:01;;;;;;;13.57;10.20;;;17.00;96.20;;;;;;5084762;28;20135;-70
2021/10/20 09:15:30;;;;;;;12.00;9.50;;;17.10;96.00;;;;;;5085196;28;20049;-69
2021/10/20 09:17:59;;;;;;;10.97;9.50;;;17.10;96.00;;;;;;5084844;28;20044;-71
2021/10/20 09:20:29;;;;;;;11.63;10.23;;;17.10;95.80;;;;;;5082640;28;20129;-71
2021/10/20 09:23:10;;;;;;;12.37;9.63;;;17.10;95.80;;;;;;5083438;28;20045;-68
2021/10/20 09:25:56;;;;;;;11.43;9.20;;;17.10;95.60;;;;;;5074751;28;20044;-68
2021/10/20 09:28:32;;;;;;;10.37;9.00;;;17.10;95.70;;;;;;5081850;28;20554;-66
2021/10/20 09:31:01;;;;;;;13.63;9.83;;;17.10;95.70;;;;;;5078278;28;20048;-71
2021/10/20 09:33:28;;;;;;;14.43;9.83;;;17.00;95.60;;;;;;5083912;28;20123;-69
2021/10/20 09:36:01;;;;;;;15.40;9.93;;;17.00;95.50;;;;;;5099705;28;20123;-69
2021/10/20 09:38:32;;;;;;;10.37;8.90;;;17.00;95.60;;;;;;5083991;28;20492;-71
2021/10/20 09:41:06;;;;;;;15.00;10.05;;;17.00;95.70;;;;;;5085078;28;20153;-69
2021/10/20 09:43:38;;;;;;;10.90;9.37;;;16.90;95.50;;;;;;5082960;28;20056;-76
2021/10/20 09:46:04;;;;;;;12.17;9.67;;;16.90;95.70;;;;;;5083808;28;20138;-75
2021/10/20 09:48:29;;;;;;;11.87;9.13;;;16.80;95.80;;;;;;5084545;28;20044;-76
2021/10/20 09:51:08;;;;;;;12.03;9.83;;;16.90;95.70;;;;;;5083929;28;20044;-75
2021/10/20 09:53:40;;;;;;;15.03;10.33;;;16.90;96.00;;;;;;5078866;28;20040;-72
2021/10/20 09:56:22;;;;;;;13.57;9.97;;;16.90;95.70;;;;;;5070558;28;20040;-75
2021/10/20 09:58:49;;;;;;;10.87;9.60;;;16.90;95.90;;;;;;5072859;28;20044;-80
2021/10/20 10:01:24;;;;;;;10.73;9.30;;;16.90;95.90;;;;;;5073502;28;20044;-82
2021/10/20 10:03:51;;;;;;;11.33;10.23;;;17.00;96.00;;;;;;5075661;28;20053;-81
2021/10/20 10:06:17;;;;;;;12.10;10.70;;;16.90;96.00;;;;;;5072412;28;20048;-79
2021/10/20 10:08:43;;;;;;;11.10;9.93;;;17.00;96.10;;;;;;5071953;28;20097;-80
2021/10/20 10:11:09;;;;;;;17.33;11.83;;;17.00;96.00;;;;;;5072924;28;20072;-84
2021/10/20 12:39:49;;;;;;;9.37;7.13;;;17.10;96.50;;;;;;5102510;27;20434;-70
2021/10/20 12:42:16;;;;;;;8.30;6.73;;;17.10;96.80;;;;;;5104115;28;20445;-66
2021/10/20 12:44:41;;;;;;;9.60;7.57;;;17.20;97.20;;;;;;5105667;28;20051;-68
2021/10/20 12:47:07;;;;;;;12.30;7.50;;;17.20;97.80;;;;;;5105400;28;20040;-68
2021/10/20 12:49:35;;;;;;;10.37;6.40;;;17.20;97.60;;;;;;5105330;28;20089;-68
2021/10/20 12:52:00;;;;;;;11.50;6.93;;;17.20;97.70;;;;;;5104454;28;20052;-68
2021/10/20 12:54:29;;;;;;;9.63;6.87;;;17.30;97.60;;;;;;5104940;28;20081;-68
2021/10/20 12:56:56;;;;;;;12.10;6.57;;;17.40;97.50;;;;;;5105231;28;20082;-69
2021/10/20 12:59:25;;;;;;;12.53;6.53;;;17.40;97.10;;;;;;5104231;28;20044;-68
2021/10/20 13:01:51;;;;;;;11.50;6.27;;;17.50;97.00;;;;;;5105236;28;20042;-68
2021/10/20 13:04:16;;;;;;;11.53;6.07;;;17.50;97.00;;;;;;5104727;28;20044;-68
2021/10/20 13:06:42;;;;;;;11.27;5.67;;;17.60;96.70;;;;;;5104791;28;20044;-70
2021/10/20 13:09:08;;;;;;;11.20;6.00;;;17.60;96.40;;;;;;5105128;28;20438;-67
2021/10/20 13:11:34;;;;;;;14.93;6.10;;;17.70;96.40;;;;;;5105727;28;20094;-67
2021/10/20 13:14:00;;;;;;;13.73;6.40;;;17.70;96.30;;;;;;5103863;28;20059;-68
2021/10/20 13:16:26;;;;;;;15.87;5.80;;;17.70;96.10;;;;;;5104103;28;20048;-68
2021/10/20 13:18:52;;;;;;;14.10;5.90;;;17.80;95.90;;;;;;5103642;28;20139;-69
2021/10/20 13:21:17;;;;;;;12.33;5.60;;;17.80;95.80;;;;;;5104989;28;20138;-68
2021/10/20 13:23:44;;;;;;;11.87;5.60;;;17.80;95.70;;;;;;5104441;28;20157;-69
2021/10/20 13:26:10;;;;;;;13.77;5.53;;;17.80;95.50;;;;;;5104877;28;20412;-68
2021/10/20 13:28:36;;;;;;;16.30;5.53;;;17.90;95.40;;;;;;5104928;28;20399;-69
2021/10/20 13:31:02;;;;;;;9.67;5.10;;;17.90;95.20;;;;;;5104689;28;20040;-68
2021/10/20 13:33:28;;;;;;;14.80;5.40;;;17.90;95.10;;;;;;5105282;28;20058;-68
2021/10/20 13:35:54;;;;;;;10.57;5.00;;;17.90;94.90;;;;;;5103377;28;20421;-68
2021/10/20 13:38:22;;;;;;;13.07;5.53;;;17.90;94.70;;;;;;5104726;28;20142;-68
2021/10/20 13:40:50;;;;;;;9.30;5.10;;;17.90;94.60;;;;;;5103050;28;20449;-68
2021/10/20 13:43:16;;;;;;;10.73;5.00;;;18.00;94.70;;;;;;5104386;28;20043;-68
2021/10/20 13:45:42;;;;;;;12.93;5.50;;;17.90;94.60;;;;;;5104012;28;20052;-69
2021/10/20 13:48:08;;;;;;;10.53;5.57;;;17.90;94.60;;;;;;5104090;28;20051;-68
2021/10/20 13:50:35;;;;;;;12.03;5.63;;;17.90;94.40;;;;;;5094422;28;20050;-67
2021/10/20 13:53:01;;;;;;;12.87;6.90;;;17.90;94.50;;;;;;5089800;28;20040;-68
2021/10/20 13:55:29;;;;;;;11.90;5.53;;;17.90;94.70;;;;;;5090349;28;20048;-68
2021/10/20 13:57:59;;;;;;;12.60;5.47;;;17.90;94.60;;;;;;5091253;28;20040;-69
2021/10/20 14:00:26;;;;;;;13.70;5.53;;;18.00;94.50;;;;;;5090866;28;20062;-68
2021/10/20 14:02:52;;;;;;;11.47;5.60;;;17.90;94.40;;;;;;5089164;28;20125;-68
2021/10/20 14:05:18;;;;;;;13.80;6.40;;;17.90;94.40;;;;;;5090061;28;20476;-68
2021/10/20 14:07:43;;;;;;;9.40;5.27;;;17.80;94.90;;;;;;5090155;28;20066;-68
2021/10/20 14:10:09;;;;;;;11.40;5.30;;;17.80;94.40;;;;;;5090715;28;20516;-69
2021/10/20 18:06:33;;;;;;;6.67;4.17;;;14.50;97.00;;;;;;5081626;27;20360;-68
2021/10/20 18:08:59;;;;;;;5.27;2.23;;;14.50;96.80;;;;;;5085062;28;20418;-73
2021/10/20 18:11:24;;;;;;;7.30;2.60;;;14.50;97.30;;;;;;5085937;28;20051;-71
2021/10/20 18:13:50;;;;;;;5.23;2.13;;;14.50;97.70;;;;;;5068398;28;20052;-73
2021/10/20 18:16:16;;;;;;;5.47;2.27;;;14.50;97.90;;;;;;5067151;28;20044;-73
2021/10/20 18:18:42;;;;;;;8.30;2.23;;;14.50;98.10;;;;;;5068034;28;20040;-74
2021/10/20 18:21:10;;;;;;;4.73;2.27;;;14.50;98.20;;;;;;5067982;28;20045;-75
2021/10/20 18:23:36;;;;;;;9.77;6.00;;;14.50;98.20;;;;;;5066755;28;20100;-70
2021/10/20 18:26:02;;;;;;;5.97;1.87;;;14.50;98.30;;;;;;5067743;28;20101;-73
2021/10/20 18:28:28;;;;;;;7.30;2.10;;;14.50;98.20;;;;;;5067481;28;20052;-71
2021/10/20 18:30:53;;;;;;;5.07;1.93;;;14.50;98.00;;;;;;5067401;28;20056;-78
2021/10/20 18:33:20;;;;;;;6.73;1.77;;;14.50;97.90;;;;;;5085186;28;20449;-72
2021/10/20 18:35:46;;;;;;;6.03;1.80;;;14.50;97.90;;;;;;5067821;28;20056;-75
2021/10/20 18:38:11;;;;;;;7.13;3.57;;;14.50;97.80;;;;;;5084838;28;20040;-75
2021/10/20 18:40:38;;;;;;;6.83;2.00;;;14.50;97.70;;;;;;5067268;28;20064;-75
2021/10/20 18:43:07;;;;;;;8.50;1.83;;;14.50;97.70;;;;;;5066637;28;20047;-76
2021/10/20 18:45:34;;;;;;;5.93;1.80;;;14.60;97.60;;;;;;5067362;28;20052;-75
2021/10/20 18:48:01;;;;;;;6.63;1.73;;;14.50;97.50;;;;;;5067474;28;20048;-75
2021/10/20 18:50:30;;;;;;;6.23;2.03;;;14.50;97.40;;;;;;5066546;28;20048;-77
2021/10/20 18:52:56;;;;;;;7.53;1.80;;;14.50;97.40;;;;;;5067389;28;20048;-70
2021/10/20 18:55:22;;;;;;;7.63;2.10;;;14.50;97.40;;;;;;5085092;28;20495;-73
2021/10/20 18:57:47;;;;;;;8.57;2.10;;;14.50;97.30;;;;;;5066667;28;20083;-74
2021/10/20 19:00:15;;;;;;;9.67;2.03;;;14.50;97.30;;;;;;5066834;28;20044;-70
2021/10/20 19:02:42;;;;;;;9.27;1.87;;;14.50;97.30;;;;;;5067092;28;20071;-70
2021/10/20 19:05:09;;;;;;;10.93;2.43;;;14.50;97.20;;;;;;5084148;28;20091;-70
2021/10/20 19:07:36;;;;;;;9.30;2.83;;;14.50;97.10;;;;;;5084763;28;20044;-69
2021/10/20 19:10:04;;;;;;;9.90;2.27;;;14.50;97.20;;;;;;5067032;28;20550;-69
2021/10/20 19:12:30;;;;;;;11.47;2.30;;;14.50;97.20;;;;;;5065883;28;20048;-69
2021/10/20 19:14:57;;;;;;;8.93;2.57;;;14.50;97.10;;;;;;5084865;28;20451;-70
2021/10/20 19:17:23;;;;;;;14.27;3.70;;;14.50;97.10;;;;;;5056216;28;20072;-69
2021/10/20 19:19:51;;;;;;;12.73;5.73;;;14.50;97.10;;;;;;5052425;28;20531;-70
2021/10/20 19:22:17;;;;;;;11.27;2.73;;;14.50;97.10;;;;;;5053229;28;20056;-71
2021/10/20 19:24:42;;;;;;;10.83;2.83;;;14.50;97.10;;;;;;5053303;28;20045;-70
2021/10/20 19:27:08;;;;;;;13.40;2.73;;;14.60;97.10;;;;;;5052568;28;20056;-69
2021/10/20 19:29:33;;;;;;;12.50;3.07;;;14.60;97.10;;;;;;5053376;28;20048;-71
